Ridgewood, New York
Current Conditions -  °F | °C
As of 11:02 AM on Wednesday 26 Nov 2014 (Local Time) from KLGA Reporting Station
Light Snow Light Snow  
Wind Chill: -4°   Ceiling: 500
Heat Index:   Visibility: 1.2mi
Dew Point:   Wind: 13mph
Humidity: 93%   Direction: 30°NNE
Pressure: 30.08"   Gusts: 16mph
Location:  40.7°N, 73.9°W
Report Text: KLGA 261602Z 03011G14KT 1 1/4SM R04/5500VP6000FT -SN BR BKN005 OVC012 01/00 A3008 RMK AO2 PRESFR P0002
Loading
Personal Weather Stations






























Interactive Weather Map New forecast layout! Learn more

10-Day Weather Forecast

Advertisements
Track Severe Weather on mobile